sensor_id;sensor_type;location;lat;lon;timestamp;P1;durP1;ratioP1;P2;durP2;ratioP2
2039;SDS011;1025;42.686;23.350;2023-06-26T00:00:22;21.03;;;18.87;;
2039;SDS011;1025;42.686;23.350;2023-06-26T00:02:49;19.77;;;17.80;;
2039;SDS011;1025;42.686;23.350;2023-06-26T00:05:15;19.20;;;17.37;;
2039;SDS011;1025;42.686;23.350;2023-06-26T00:07:42;20.67;;;18.67;;
2039;SDS011;1025;42.686;23.350;2023-06-26T00:10:09;19.13;;;17.43;;
2039;SDS011;1025;42.686;23.350;2023-06-26T00:12:35;19.23;;;17.37;;
2039;SDS011;1025;42.686;23.350;2023-06-26T00:15:02;18.23;;;16.50;;
2039;SDS011;1025;42.686;23.350;2023-06-26T00:17:30;19.20;;;17.30;;
2039;SDS011;1025;42.686;23.350;2023-06-26T00:20:01;17.77;;;16.07;;
2039;SDS011;1025;42.686;23.350;2023-06-26T00:22:30;18.43;;;16.57;;
2039;SDS011;1025;42.686;23.350;2023-06-26T00:24:56;18.30;;;16.83;;
2039;SDS011;1025;42.686;23.350;2023-06-26T00:27:23;18.77;;;17.03;;
2039;SDS011;1025;42.686;23.350;2023-06-26T00:29:49;16.43;;;15.03;;
2039;SDS011;1025;42.686;23.350;2023-06-26T00:32:17;18.17;;;16.47;;
2039;SDS011;1025;42.686;23.350;2023-06-26T00:34:45;16.10;;;14.50;;
2039;SDS011;1025;42.686;23.350;2023-06-26T00:37:12;16.77;;;15.20;;
2039;SDS011;1025;42.686;23.350;2023-06-26T00:39:39;17.07;;;15.50;;
2039;SDS011;1025;42.686;23.350;2023-06-26T00:42:06;17.47;;;15.77;;
2039;SDS011;1025;42.686;23.350;2023-06-26T00:44:33;16.73;;;15.20;;
2039;SDS011;1025;42.686;23.350;2023-06-26T00:46:59;17.17;;;15.47;;
2039;SDS011;1025;42.686;23.350;2023-06-26T00:49:26;15.40;;;14.10;;
2039;SDS011;1025;42.686;23.350;2023-06-26T00:51:54;16.63;;;14.03;;
2039;SDS011;1025;42.686;23.350;2023-06-26T00:54:20;14.43;;;13.03;;
2039;SDS011;1025;42.686;23.350;2023-06-26T00:56:47;17.47;;;15.97;;
2039;SDS011;1025;42.686;23.350;2023-06-26T00:59:14;16.03;;;14.23;;
2039;SDS011;1025;42.686;23.350;2023-06-26T01:01:41;16.53;;;14.93;;
2039;SDS011;1025;42.686;23.350;2023-06-26T01:04:07;15.30;;;14.00;;
2039;SDS011;1025;42.686;23.350;2023-06-26T01:06:43;16.30;;;14.70;;
2039;SDS011;1025;42.686;23.350;2023-06-26T01:09:15;16.30;;;15.00;;
2039;SDS011;1025;42.686;23.350;2023-06-26T01:11:41;14.90;;;13.73;;
2039;SDS011;1025;42.686;23.350;2023-06-26T01:14:08;14.40;;;13.20;;
2039;SDS011;1025;42.686;23.350;2023-06-26T01:16:34;15.13;;;13.77;;
2039;SDS011;1025;42.686;23.350;2023-06-26T01:19:01;13.70;;;12.60;;
2039;SDS011;1025;42.686;23.350;2023-06-26T01:21:33;16.67;;;14.23;;
2039;SDS011;1025;42.686;23.350;2023-06-26T01:24:02;15.47;;;13.10;;
2039;SDS011;1025;42.686;23.350;2023-06-26T01:26:32;13.70;;;12.50;;
2039;SDS011;1025;42.686;23.350;2023-06-26T01:29:01;14.83;;;13.53;;
2039;SDS011;1025;42.686;23.350;2023-06-26T01:31:28;15.20;;;13.70;;
2039;SDS011;1025;42.686;23.350;2023-06-26T01:33:56;14.00;;;12.80;;
2039;SDS011;1025;42.686;23.350;2023-06-26T01:36:23;13.13;;;11.93;;
2039;SDS011;1025;42.686;23.350;2023-06-26T01:38:50;14.00;;;12.87;;
2039;SDS011;1025;42.686;23.350;2023-06-26T01:41:17;14.20;;;12.70;;
2039;SDS011;1025;42.686;23.350;2023-06-26T01:43:50;15.57;;;14.27;;
2039;SDS011;1025;42.686;23.350;2023-06-26T01:46:21;13.80;;;12.60;;
2039;SDS011;1025;42.686;23.350;2023-06-26T01:48:50;15.20;;;14.00;;
2039;SDS011;1025;42.686;23.350;2023-06-26T01:51:17;14.40;;;13.30;;
2039;SDS011;1025;42.686;23.350;2023-06-26T01:53:47;15.47;;;14.10;;
2039;SDS011;1025;42.686;23.350;2023-06-26T01:56:19;13.87;;;12.67;;
2039;SDS011;1025;42.686;23.350;2023-06-26T01:58:46;14.03;;;12.90;;
2039;SDS011;1025;42.686;23.350;2023-06-26T02:01:14;13.63;;;12.50;;
2039;SDS011;1025;42.686;23.350;2023-06-26T02:03:41;14.00;;;12.90;;
2039;SDS011;1025;42.686;23.350;2023-06-26T02:06:08;13.83;;;12.53;;
2039;SDS011;1025;42.686;23.350;2023-06-26T02:08:35;14.63;;;13.40;;
2039;SDS011;1025;42.686;23.350;2023-06-26T02:11:02;15.90;;;14.30;;
2039;SDS011;1025;42.686;23.350;2023-06-26T02:13:28;13.97;;;12.87;;
2039;SDS011;1025;42.686;23.350;2023-06-26T02:15:54;14.70;;;13.50;;
2039;SDS011;1025;42.686;23.350;2023-06-26T02:18:23;15.20;;;13.77;;
2039;SDS011;1025;42.686;23.350;2023-06-26T02:20:50;14.60;;;13.30;;
2039;SDS011;1025;42.686;23.350;2023-06-26T02:23:16;14.97;;;13.60;;
2039;SDS011;1025;42.686;23.350;2023-06-26T02:25:43;14.70;;;13.50;;
2039;SDS011;1025;42.686;23.350;2023-06-26T02:28:09;14.87;;;13.50;;
2039;SDS011;1025;42.686;23.350;2023-06-26T02:30:36;16.30;;;14.30;;
2039;SDS011;1025;42.686;23.350;2023-06-26T02:33:02;17.23;;;15.40;;
2039;SDS011;1025;42.686;23.350;2023-06-26T02:35:30;14.57;;;13.47;;
2039;SDS011;1025;42.686;23.350;2023-06-26T02:37:58;16.80;;;15.40;;
2039;SDS011;1025;42.686;23.350;2023-06-26T02:40:24;15.57;;;14.17;;
2039;SDS011;1025;42.686;23.350;2023-06-26T02:42:51;15.80;;;14.37;;
2039;SDS011;1025;42.686;23.350;2023-06-26T02:45:17;18.00;;;15.10;;
2039;SDS011;1025;42.686;23.350;2023-06-26T02:47:44;17.40;;;15.80;;
2039;SDS011;1025;42.686;23.350;2023-06-26T02:50:10;17.33;;;15.77;;
2039;SDS011;1025;42.686;23.350;2023-06-26T02:52:38;18.00;;;16.30;;
2039;SDS011;1025;42.686;23.350;2023-06-26T02:55:05;18.17;;;16.60;;
2039;SDS011;1025;42.686;23.350;2023-06-26T02:57:31;18.70;;;16.87;;
2039;SDS011;1025;42.686;23.350;2023-06-26T02:59:58;19.27;;;17.47;;
2039;SDS011;1025;42.686;23.350;2023-06-26T03:02:24;20.27;;;18.47;;
2039;SDS011;1025;42.686;23.350;2023-06-26T03:04:51;19.97;;;18.27;;
2039;SDS011;1025;42.686;23.350;2023-06-26T03:07:18;21.10;;;18.97;;
2039;SDS011;1025;42.686;23.350;2023-06-26T03:09:45;23.93;;;21.63;;
2039;SDS011;1025;42.686;23.350;2023-06-26T03:12:12;20.07;;;18.17;;
2039;SDS011;1025;42.686;23.350;2023-06-26T03:14:42;20.07;;;18.27;;
2039;SDS011;1025;42.686;23.350;2023-06-26T03:17:08;20.97;;;18.93;;
2039;SDS011;1025;42.686;23.350;2023-06-26T03:19:35;21.60;;;19.67;;
2039;SDS011;1025;42.686;23.350;2023-06-26T03:22:01;20.67;;;18.60;;
2039;SDS011;1025;42.686;23.350;2023-06-26T03:24:28;22.27;;;19.93;;
2039;SDS011;1025;42.686;23.350;2023-06-26T03:26:56;21.80;;;19.83;;
2039;SDS011;1025;42.686;23.350;2023-06-26T03:29:23;21.03;;;18.97;;
2039;SDS011;1025;42.686;23.350;2023-06-26T03:31:49;20.77;;;18.60;;
2039;SDS011;1025;42.686;23.350;2023-06-26T03:34:16;22.50;;;20.20;;
2039;SDS011;1025;42.686;23.350;2023-06-26T03:36:43;22.60;;;20.47;;
2039;SDS011;1025;42.686;23.350;2023-06-26T03:39:09;22.07;;;20.17;;
2039;SDS011;1025;42.686;23.350;2023-06-26T03:41:36;21.73;;;19.53;;
2039;SDS011;1025;42.686;23.350;2023-06-26T03:44:04;20.63;;;18.93;;
2039;SDS011;1025;42.686;23.350;2023-06-26T03:46:30;23.07;;;20.73;;
2039;SDS011;1025;42.686;23.350;2023-06-26T03:48:57;22.33;;;20.37;;
2039;SDS011;1025;42.686;23.350;2023-06-26T03:51:23;23.70;;;21.50;;
2039;SDS011;1025;42.686;23.350;2023-06-26T03:53:50;23.20;;;20.87;;
2039;SDS011;1025;42.686;23.350;2023-06-26T03:56:17;23.30;;;20.63;;
2039;SDS011;1025;42.686;23.350;2023-06-26T03:58:43;23.17;;;21.07;;
2039;SDS011;1025;42.686;23.350;2023-06-26T04:01:11;22.40;;;20.50;;
2039;SDS011;1025;42.686;23.350;2023-06-26T04:03:37;21.57;;;19.70;;
2039;SDS011;1025;42.686;23.350;2023-06-26T04:06:04;21.97;;;19.77;;
2039;SDS011;1025;42.686;23.350;2023-06-26T04:08:31;21.70;;;19.70;;
2039;SDS011;1025;42.686;23.350;2023-06-26T04:10:57;20.50;;;18.50;;
2039;SDS011;1025;42.686;23.350;2023-06-26T04:13:24;19.60;;;16.40;;
2039;SDS011;1025;42.686;23.350;2023-06-26T04:15:50;19.87;;;17.90;;
2039;SDS011;1025;42.686;23.350;2023-06-26T04:18:18;18.00;;;16.47;;
2039;SDS011;1025;42.686;23.350;2023-06-26T04:23:27;18.03;;;16.13;;
2039;SDS011;1025;42.686;23.350;2023-06-26T04:25:53;17.73;;;16.13;;
2039;SDS011;1025;42.686;23.350;2023-06-26T04:28:20;24.20;;;17.13;;
2039;SDS011;1025;42.686;23.350;2023-06-26T04:30:47;17.93;;;16.23;;
2039;SDS011;1025;42.686;23.350;2023-06-26T04:33:14;18.67;;;17.00;;
2039;SDS011;1025;42.686;23.350;2023-06-26T04:35:42;19.73;;;17.83;;
2039;SDS011;1025;42.686;23.350;2023-06-26T04:38:09;18.73;;;17.10;;
2039;SDS011;1025;42.686;23.350;2023-06-26T04:40:36;18.50;;;16.83;;
2039;SDS011;1025;42.686;23.350;2023-06-26T04:43:03;19.83;;;17.83;;
2039;SDS011;1025;42.686;23.350;2023-06-26T04:45:29;18.37;;;16.70;;
2039;SDS011;1025;42.686;23.350;2023-06-26T04:47:56;18.17;;;16.47;;
2039;SDS011;1025;42.686;23.350;2023-06-26T04:50:23;18.47;;;16.70;;
2039;SDS011;1025;42.686;23.350;2023-06-26T04:52:50;21.27;;;16.80;;
2039;SDS011;1025;42.686;23.350;2023-06-26T04:55:17;18.20;;;16.30;;
2039;SDS011;1025;42.686;23.350;2023-06-26T04:57:44;16.70;;;14.83;;
2039;SDS011;1025;42.686;23.350;2023-06-26T05:00:11;15.73;;;14.53;;
2039;SDS011;1025;42.686;23.350;2023-06-26T05:02:38;18.80;;;15.20;;
2039;SDS011;1025;42.686;23.350;2023-06-26T05:05:04;17.03;;;15.27;;
2039;SDS011;1025;42.686;23.350;2023-06-26T05:07:31;15.70;;;14.07;;
2039;SDS011;1025;42.686;23.350;2023-06-26T05:09:59;15.50;;;14.07;;
2039;SDS011;1025;42.686;23.350;2023-06-26T05:12:25;16.53;;;15.13;;
2039;SDS011;1025;42.686;23.350;2023-06-26T05:14:52;17.07;;;15.50;;
2039;SDS011;1025;42.686;23.350;2023-06-26T05:17:19;20.03;;;17.73;;
2039;SDS011;1025;42.686;23.350;2023-06-26T05:19:45;18.83;;;17.17;;
2039;SDS011;1025;42.686;23.350;2023-06-26T05:22:12;18.47;;;17.07;;
2039;SDS011;1025;42.686;23.350;2023-06-26T05:24:39;16.50;;;15.03;;
2039;SDS011;1025;42.686;23.350;2023-06-26T05:27:08;18.43;;;16.83;;
2039;SDS011;1025;42.686;23.350;2023-06-26T05:29:35;22.37;;;17.00;;
2039;SDS011;1025;42.686;23.350;2023-06-26T05:32:02;18.00;;;16.40;;
2039;SDS011;1025;42.686;23.350;2023-06-26T05:34:28;16.83;;;15.33;;
2039;SDS011;1025;42.686;23.350;2023-06-26T05:36:57;19.10;;;15.60;;
2039;SDS011;1025;42.686;23.350;2023-06-26T05:39:24;20.03;;;18.23;;
2039;SDS011;1025;42.686;23.350;2023-06-26T05:41:51;18.10;;;16.50;;
2039;SDS011;1025;42.686;23.350;2023-06-26T05:44:19;19.87;;;15.50;;
2039;SDS011;1025;42.686;23.350;2023-06-26T05:46:46;16.47;;;14.77;;
2039;SDS011;1025;42.686;23.350;2023-06-26T05:49:12;17.10;;;15.50;;
2039;SDS011;1025;42.686;23.350;2023-06-26T05:51:39;15.30;;;13.80;;
2039;SDS011;1025;42.686;23.350;2023-06-26T05:54:06;18.63;;;16.17;;
2039;SDS011;1025;42.686;23.350;2023-06-26T05:56:33;15.47;;;14.03;;
2039;SDS011;1025;42.686;23.350;2023-06-26T05:58:59;16.70;;;15.10;;
2039;SDS011;1025;42.686;23.350;2023-06-26T06:01:28;15.43;;;14.00;;
2039;SDS011;1025;42.686;23.350;2023-06-26T06:03:54;16.73;;;15.10;;
2039;SDS011;1025;42.686;23.350;2023-06-26T06:06:21;15.43;;;14.13;;
2039;SDS011;1025;42.686;23.350;2023-06-26T06:08:47;15.77;;;14.33;;
2039;SDS011;1025;42.686;23.350;2023-06-26T06:11:14;16.80;;;15.20;;
2039;SDS011;1025;42.686;23.350;2023-06-26T06:13:40;15.07;;;13.73;;
2039;SDS011;1025;42.686;23.350;2023-06-26T06:16:07;14.17;;;12.87;;
2039;SDS011;1025;42.686;23.350;2023-06-26T06:18:35;17.53;;;14.07;;
2039;SDS011;1025;42.686;23.350;2023-06-26T06:21:02;15.70;;;13.43;;
2039;SDS011;1025;42.686;23.350;2023-06-26T06:23:28;13.80;;;12.50;;
2039;SDS011;1025;42.686;23.350;2023-06-26T06:25:55;14.60;;;13.30;;
2039;SDS011;1025;42.686;23.350;2023-06-26T06:28:21;14.70;;;12.03;;
2039;SDS011;1025;42.686;23.350;2023-06-26T06:30:48;12.23;;;11.23;;
2039;SDS011;1025;42.686;23.350;2023-06-26T06:33:14;12.93;;;11.80;;
2039;SDS011;1025;42.686;23.350;2023-06-26T06:35:42;15.13;;;13.60;;
2039;SDS011;1025;42.686;23.350;2023-06-26T06:38:09;14.57;;;13.27;;
2039;SDS011;1025;42.686;23.350;2023-06-26T06:40:36;17.43;;;13.13;;
2039;SDS011;1025;42.686;23.350;2023-06-26T06:43:02;15.13;;;13.53;;
2039;SDS011;1025;42.686;23.350;2023-06-26T06:45:29;12.47;;;11.27;;
2039;SDS011;1025;42.686;23.350;2023-06-26T06:47:55;23.50;;;13.20;;
2039;SDS011;1025;42.686;23.350;2023-06-26T06:50:22;14.03;;;12.20;;
2039;SDS011;1025;42.686;23.350;2023-06-26T06:52:50;11.20;;;10.10;;
2039;SDS011;1025;42.686;23.350;2023-06-26T06:55:16;11.27;;;10.27;;
2039;SDS011;1025;42.686;23.350;2023-06-26T06:57:43;10.93;;;10.13;;
2039;SDS011;1025;42.686;23.350;2023-06-26T07:00:10;11.50;;;9.23;;
2039;SDS011;1025;42.686;23.350;2023-06-26T07:02:37;9.70;;;8.90;;
2039;SDS011;1025;42.686;23.350;2023-06-26T07:05:04;10.03;;;9.07;;
2039;SDS011;1025;42.686;23.350;2023-06-26T07:07:31;14.90;;;10.10;;
2039;SDS011;1025;42.686;23.350;2023-06-26T07:10:03;10.33;;;8.33;;
2039;SDS011;1025;42.686;23.350;2023-06-26T07:12:30;8.60;;;8.00;;
2039;SDS011;1025;42.686;23.350;2023-06-26T07:14:57;10.20;;;9.37;;
2039;SDS011;1025;42.686;23.350;2023-06-26T07:17:23;9.90;;;9.10;;
2039;SDS011;1025;42.686;23.350;2023-06-26T07:19:50;8.80;;;8.20;;
2039;SDS011;1025;42.686;23.350;2023-06-26T07:22:16;8.87;;;7.90;;
2039;SDS011;1025;42.686;23.350;2023-06-26T07:24:45;10.60;;;9.50;;
2039;SDS011;1025;42.686;23.350;2023-06-26T07:27:13;7.00;;;6.40;;
2039;SDS011;1025;42.686;23.350;2023-06-26T07:29:39;19.47;;;17.87;;
2039;SDS011;1025;42.686;23.350;2023-06-26T07:32:06;9.37;;;8.47;;
2039;SDS011;1025;42.686;23.350;2023-06-26T07:34:33;9.13;;;8.33;;
2039;SDS011;1025;42.686;23.350;2023-06-26T07:36:59;9.50;;;7.67;;
2039;SDS011;1025;42.686;23.350;2023-06-26T07:39:26;19.03;;;7.80;;
2039;SDS011;1025;42.686;23.350;2023-06-26T07:41:53;8.43;;;7.60;;
2039;SDS011;1025;42.686;23.350;2023-06-26T07:44:21;9.90;;;8.67;;
2039;SDS011;1025;42.686;23.350;2023-06-26T07:46:48;9.47;;;7.83;;
2039;SDS011;1025;42.686;23.350;2023-06-26T07:49:14;10.13;;;8.43;;
2039;SDS011;1025;42.686;23.350;2023-06-26T07:51:41;9.70;;;7.97;;
2039;SDS011;1025;42.686;23.350;2023-06-26T07:54:07;12.17;;;7.10;;
2039;SDS011;1025;42.686;23.350;2023-06-26T07:56:35;10.13;;;7.30;;
2039;SDS011;1025;42.686;23.350;2023-06-26T07:59:17;7.23;;;6.53;;
2039;SDS011;1025;42.686;23.350;2023-06-26T08:01:45;10.27;;;9.47;;
2039;SDS011;1025;42.686;23.350;2023-06-26T08:04:12;7.87;;;7.20;;
2039;SDS011;1025;42.686;23.350;2023-06-26T08:06:39;12.10;;;8.23;;
2039;SDS011;1025;42.686;23.350;2023-06-26T08:09:05;8.40;;;6.77;;
2039;SDS011;1025;42.686;23.350;2023-06-26T08:11:32;6.83;;;6.00;;
2039;SDS011;1025;42.686;23.350;2023-06-26T08:13:59;7.77;;;6.70;;
2039;SDS011;1025;42.686;23.350;2023-06-26T08:16:25;6.70;;;6.10;;
2039;SDS011;1025;42.686;23.350;2023-06-26T08:18:53;8.17;;;7.40;;
2039;SDS011;1025;42.686;23.350;2023-06-26T08:21:20;8.90;;;7.40;;
2039;SDS011;1025;42.686;23.350;2023-06-26T08:23:46;11.60;;;7.87;;
2039;SDS011;1025;42.686;23.350;2023-06-26T08:26:13;8.13;;;7.30;;
2039;SDS011;1025;42.686;23.350;2023-06-26T08:28:40;7.20;;;6.53;;
2039;SDS011;1025;42.686;23.350;2023-06-26T08:31:06;6.87;;;6.33;;
2039;SDS011;1025;42.686;23.350;2023-06-26T08:33:33;10.17;;;7.10;;
2039;SDS011;1025;42.686;23.350;2023-06-26T08:36:01;9.00;;;8.30;;
2039;SDS011;1025;42.686;23.350;2023-06-26T08:38:28;8.60;;;7.10;;
2039;SDS011;1025;42.686;23.350;2023-06-26T08:40:54;11.77;;;7.57;;
2039;SDS011;1025;42.686;23.350;2023-06-26T08:43:21;7.07;;;6.57;;
2039;SDS011;1025;42.686;23.350;2023-06-26T08:45:48;7.20;;;6.50;;
2039;SDS011;1025;42.686;23.350;2023-06-26T08:48:17;6.63;;;6.00;;
2039;SDS011;1025;42.686;23.350;2023-06-26T08:50:43;7.13;;;6.40;;
2039;SDS011;1025;42.686;23.350;2023-06-26T08:53:13;12.83;;;7.87;;
2039;SDS011;1025;42.686;23.350;2023-06-26T08:55:41;6.67;;;6.03;;
2039;SDS011;1025;42.686;23.350;2023-06-26T08:58:08;9.27;;;6.03;;
2039;SDS011;1025;42.686;23.350;2023-06-26T09:00:34;8.47;;;6.77;;
2039;SDS011;1025;42.686;23.350;2023-06-26T09:03:01;6.47;;;5.87;;
2039;SDS011;1025;42.686;23.350;2023-06-26T09:05:29;7.40;;;6.77;;
2039;SDS011;1025;42.686;23.350;2023-06-26T09:07:57;9.23;;;7.00;;
2039;SDS011;1025;42.686;23.350;2023-06-26T09:10:25;10.47;;;6.77;;
2039;SDS011;1025;42.686;23.350;2023-06-26T09:12:52;5.90;;;5.50;;
2039;SDS011;1025;42.686;23.350;2023-06-26T09:15:21;6.03;;;5.43;;
2039;SDS011;1025;42.686;23.350;2023-06-26T09:17:47;6.30;;;5.70;;
2039;SDS011;1025;42.686;23.350;2023-06-26T09:20:14;9.67;;;6.90;;
2039;SDS011;1025;42.686;23.350;2023-06-26T09:22:41;6.83;;;6.23;;
2039;SDS011;1025;42.686;23.350;2023-06-26T09:25:08;8.93;;;5.97;;
2039;SDS011;1025;42.686;23.350;2023-06-26T09:27:36;11.03;;;9.03;;
2039;SDS011;1025;42.686;23.350;2023-06-26T09:30:03;7.50;;;6.20;;
2039;SDS011;1025;42.686;23.350;2023-06-26T09:32:33;6.67;;;6.07;;
2039;SDS011;1025;42.686;23.350;2023-06-26T09:35:01;9.10;;;6.87;;
2039;SDS011;1025;42.686;23.350;2023-06-26T09:37:28;5.60;;;5.20;;
2039;SDS011;1025;42.686;23.350;2023-06-26T09:39:54;7.63;;;5.07;;
2039;SDS011;1025;42.686;23.350;2023-06-26T09:42:21;6.60;;;6.03;;
2039;SDS011;1025;42.686;23.350;2023-06-26T09:44:49;8.30;;;7.47;;
2039;SDS011;1025;42.686;23.350;2023-06-26T09:47:16;7.80;;;6.20;;
2039;SDS011;1025;42.686;23.350;2023-06-26T09:49:43;8.73;;;5.23;;
2039;SDS011;1025;42.686;23.350;2023-06-26T09:52:10;6.67;;;6.17;;
2039;SDS011;1025;42.686;23.350;2023-06-26T09:54:40;8.40;;;7.57;;
2039;SDS011;1025;42.686;23.350;2023-06-26T09:57:09;6.67;;;6.03;;
2039;SDS011;1025;42.686;23.350;2023-06-26T09:59:36;7.40;;;6.70;;
2039;SDS011;1025;42.686;23.350;2023-06-26T10:02:05;7.20;;;6.50;;
2039;SDS011;1025;42.686;23.350;2023-06-26T10:04:31;6.77;;;6.10;;
2039;SDS011;1025;42.686;23.350;2023-06-26T10:06:58;7.90;;;6.20;;
2039;SDS011;1025;42.686;23.350;2023-06-26T10:09:27;8.03;;;6.70;;
2039;SDS011;1025;42.686;23.350;2023-06-26T10:11:56;12.70;;;7.13;;
2039;SDS011;1025;42.686;23.350;2023-06-26T10:14:23;10.30;;;6.43;;
2039;SDS011;1025;42.686;23.350;2023-06-26T10:16:52;10.83;;;8.20;;
2039;SDS011;1025;42.686;23.350;2023-06-26T10:19:24;8.97;;;6.00;;
2039;SDS011;1025;42.686;23.350;2023-06-26T10:21:52;7.00;;;6.13;;
2039;SDS011;1025;42.686;23.350;2023-06-26T10:24:19;9.27;;;6.67;;
2039;SDS011;1025;42.686;23.350;2023-06-26T10:26:47;6.57;;;5.97;;
2039;SDS011;1025;42.686;23.350;2023-06-26T10:29:15;7.67;;;5.93;;
2039;SDS011;1025;42.686;23.350;2023-06-26T10:31:42;6.57;;;5.90;;
2039;SDS011;1025;42.686;23.350;2023-06-26T10:34:10;8.30;;;7.20;;
2039;SDS011;1025;42.686;23.350;2023-06-26T10:36:38;8.80;;;6.40;;
2039;SDS011;1025;42.686;23.350;2023-06-26T10:39:05;7.13;;;5.80;;
2039;SDS011;1025;42.686;23.350;2023-06-26T10:41:36;6.87;;;6.33;;
2039;SDS011;1025;42.686;23.350;2023-06-26T10:44:06;7.10;;;5.33;;
2039;SDS011;1025;42.686;23.350;2023-06-26T10:46:33;6.20;;;5.17;;
2039;SDS011;1025;42.686;23.350;2023-06-26T10:49:00;7.20;;;6.33;;
2039;SDS011;1025;42.686;23.350;2023-06-26T10:51:28;7.03;;;6.40;;
2039;SDS011;1025;42.686;23.350;2023-06-26T10:53:57;11.47;;;7.57;;
2039;SDS011;1025;42.686;23.350;2023-06-26T10:59:11;6.30;;;5.80;;
2039;SDS011;1025;42.686;23.350;2023-06-26T11:01:39;7.53;;;6.83;;
2039;SDS011;1025;42.686;23.350;2023-06-26T11:04:07;8.70;;;5.70;;
2039;SDS011;1025;42.686;23.350;2023-06-26T11:06:34;8.70;;;6.63;;
2039;SDS011;1025;42.686;23.350;2023-06-26T11:09:07;6.60;;;6.10;;
2039;SDS011;1025;42.686;23.350;2023-06-26T11:14:24;7.80;;;5.63;;
2039;SDS011;1025;42.686;23.350;2023-06-26T11:16:50;6.90;;;6.20;;
2039;SDS011;1025;42.686;23.350;2023-06-26T11:19:17;9.53;;;6.90;;
2039;SDS011;1025;42.686;23.350;2023-06-26T11:21:44;8.67;;;7.37;;
2039;SDS011;1025;42.686;23.350;2023-06-26T11:24:12;9.23;;;5.67;;
2039;SDS011;1025;42.686;23.350;2023-06-26T11:26:39;7.00;;;6.40;;
2039;SDS011;1025;42.686;23.350;2023-06-26T11:29:06;6.80;;;6.10;;
2039;SDS011;1025;42.686;23.350;2023-06-26T11:31:33;6.07;;;5.53;;
2039;SDS011;1025;42.686;23.350;2023-06-26T11:34:00;5.67;;;5.20;;
2039;SDS011;1025;42.686;23.350;2023-06-26T11:36:28;5.80;;;5.40;;
2039;SDS011;1025;42.686;23.350;2023-06-26T11:38:54;6.93;;;6.23;;
2039;SDS011;1025;42.686;23.350;2023-06-26T11:41:24;5.80;;;5.40;;
2039;SDS011;1025;42.686;23.350;2023-06-26T11:43:51;8.07;;;5.87;;
2039;SDS011;1025;42.686;23.350;2023-06-26T11:46:20;8.70;;;7.90;;
2039;SDS011;1025;42.686;23.350;2023-06-26T11:48:47;8.57;;;5.77;;
2039;SDS011;1025;42.686;23.350;2023-06-26T11:51:14;10.63;;;6.23;;
2039;SDS011;1025;42.686;23.350;2023-06-26T11:53:41;9.40;;;7.23;;
2039;SDS011;1025;42.686;23.350;2023-06-26T11:56:09;7.30;;;6.80;;
2039;SDS011;1025;42.686;23.350;2023-06-26T11:58:37;6.67;;;6.07;;
2039;SDS011;1025;42.686;23.350;2023-06-26T12:01:18;8.00;;;6.33;;
2039;SDS011;1025;42.686;23.350;2023-06-26T12:03:46;6.17;;;5.67;;
2039;SDS011;1025;42.686;23.350;2023-06-26T12:06:13;7.07;;;6.30;;
2039;SDS011;1025;42.686;23.350;2023-06-26T12:08:40;10.93;;;6.97;;
2039;SDS011;1025;42.686;23.350;2023-06-26T12:11:07;6.73;;;6.20;;
2039;SDS011;1025;42.686;23.350;2023-06-26T12:13:34;6.63;;;6.23;;
2039;SDS011;1025;42.686;23.350;2023-06-26T12:16:02;6.07;;;5.47;;
2039;SDS011;1025;42.686;23.350;2023-06-26T12:18:33;7.53;;;6.87;;
2039;SDS011;1025;42.686;23.350;2023-06-26T12:20:59;14.67;;;8.23;;
2039;SDS011;1025;42.686;23.350;2023-06-26T12:23:31;6.63;;;6.13;;
2039;SDS011;1025;42.686;23.350;2023-06-26T12:25:58;7.00;;;6.30;;
2039;SDS011;1025;42.686;23.350;2023-06-26T12:28:24;6.67;;;6.17;;
2039;SDS011;1025;42.686;23.350;2023-06-26T12:33:34;7.43;;;5.40;;
2039;SDS011;1025;42.686;23.350;2023-06-26T12:36:02;5.40;;;4.87;;
2039;SDS011;1025;42.686;23.350;2023-06-26T12:38:32;7.27;;;5.87;;
2039;SDS011;1025;42.686;23.350;2023-06-26T12:40:59;6.27;;;5.80;;
2039;SDS011;1025;42.686;23.350;2023-06-26T12:43:25;7.90;;;6.33;;
2039;SDS011;1025;42.686;23.350;2023-06-26T12:45:53;8.50;;;6.80;;
2039;SDS011;1025;42.686;23.350;2023-06-26T12:48:20;7.10;;;6.50;;
2039;SDS011;1025;42.686;23.350;2023-06-26T12:50:48;9.17;;;7.07;;
2039;SDS011;1025;42.686;23.350;2023-06-26T12:53:15;7.23;;;5.87;;
2039;SDS011;1025;42.686;23.350;2023-06-26T12:55:42;7.47;;;6.73;;
2039;SDS011;1025;42.686;23.350;2023-06-26T12:58:08;7.77;;;7.00;;
2039;SDS011;1025;42.686;23.350;2023-06-26T13:00:35;8.40;;;7.53;;
2039;SDS011;1025;42.686;23.350;2023-06-26T13:03:02;6.20;;;5.80;;
2039;SDS011;1025;42.686;23.350;2023-06-26T13:05:29;8.00;;;7.27;;
2039;SDS011;1025;42.686;23.350;2023-06-26T13:07:56;10.20;;;6.27;;
2039;SDS011;1025;42.686;23.350;2023-06-26T13:10:25;6.53;;;6.00;;
2039;SDS011;1025;42.686;23.350;2023-06-26T13:12:54;7.03;;;6.33;;
2039;SDS011;1025;42.686;23.350;2023-06-26T13:15:20;14.50;;;7.57;;
2039;SDS011;1025;42.686;23.350;2023-06-26T13:17:47;10.17;;;7.97;;
2039;SDS011;1025;42.686;23.350;2023-06-26T13:20:13;7.10;;;6.40;;
2039;SDS011;1025;42.686;23.350;2023-06-26T13:22:40;6.47;;;5.97;;
2039;SDS011;1025;42.686;23.350;2023-06-26T13:25:08;6.40;;;5.90;;
2039;SDS011;1025;42.686;23.350;2023-06-26T13:27:35;7.20;;;6.50;;
2039;SDS011;1025;42.686;23.350;2023-06-26T13:30:01;7.50;;;6.80;;
2039;SDS011;1025;42.686;23.350;2023-06-26T13:32:28;9.00;;;5.90;;
2039;SDS011;1025;42.686;23.350;2023-06-26T13:34:54;7.83;;;6.50;;
2039;SDS011;1025;42.686;23.350;2023-06-26T13:37:21;9.60;;;8.03;;
2039;SDS011;1025;42.686;23.350;2023-06-26T13:39:47;6.33;;;5.83;;
2039;SDS011;1025;42.686;23.350;2023-06-26T13:42:17;6.97;;;6.13;;
2039;SDS011;1025;42.686;23.350;2023-06-26T13:44:43;6.67;;;6.03;;
2039;SDS011;1025;42.686;23.350;2023-06-26T13:47:12;7.57;;;6.53;;
2039;SDS011;1025;42.686;23.350;2023-06-26T13:49:38;7.97;;;6.10;;
2039;SDS011;1025;42.686;23.350;2023-06-26T13:52:05;7.70;;;6.00;;
2039;SDS011;1025;42.686;23.350;2023-06-26T13:54:33;6.03;;;5.53;;
2039;SDS011;1025;42.686;23.350;2023-06-26T13:56:59;10.40;;;6.10;;
2039;SDS011;1025;42.686;23.350;2023-06-26T13:59:28;6.03;;;5.43;;
2039;SDS011;1025;42.686;23.350;2023-06-26T14:01:55;7.30;;;6.20;;
2039;SDS011;1025;42.686;23.350;2023-06-26T14:04:21;8.93;;;6.73;;
2039;SDS011;1025;42.686;23.350;2023-06-26T14:06:48;6.40;;;5.80;;
2039;SDS011;1025;42.686;23.350;2023-06-26T14:09:14;7.83;;;7.13;;
2039;SDS011;1025;42.686;23.350;2023-06-26T14:11:41;14.83;;;6.80;;
2039;SDS011;1025;42.686;23.350;2023-06-26T14:14:07;6.10;;;5.60;;
2039;SDS011;1025;42.686;23.350;2023-06-26T14:16:35;6.60;;;5.97;;
2039;SDS011;1025;42.686;23.350;2023-06-26T14:19:02;8.20;;;6.40;;
2039;SDS011;1025;42.686;23.350;2023-06-26T14:21:29;7.33;;;6.40;;
2039;SDS011;1025;42.686;23.350;2023-06-26T14:23:56;7.03;;;6.53;;
2039;SDS011;1025;42.686;23.350;2023-06-26T14:26:22;10.20;;;7.00;;
2039;SDS011;1025;42.686;23.350;2023-06-26T14:28:49;6.90;;;6.30;;
2039;SDS011;1025;42.686;23.350;2023-06-26T14:31:16;8.30;;;6.60;;
2039;SDS011;1025;42.686;23.350;2023-06-26T14:33:44;8.30;;;6.87;;
2039;SDS011;1025;42.686;23.350;2023-06-26T14:36:10;7.43;;;6.83;;
2039;SDS011;1025;42.686;23.350;2023-06-26T14:38:37;7.17;;;6.47;;
2039;SDS011;1025;42.686;23.350;2023-06-26T14:41:03;7.80;;;7.10;;
2039;SDS011;1025;42.686;23.350;2023-06-26T14:43:30;7.77;;;7.20;;
2039;SDS011;1025;42.686;23.350;2023-06-26T14:45:56;6.40;;;6.00;;
2039;SDS011;1025;42.686;23.350;2023-06-26T14:48:23;7.07;;;6.57;;
2039;SDS011;1025;42.686;23.350;2023-06-26T14:50:51;7.97;;;7.27;;
2039;SDS011;1025;42.686;23.350;2023-06-26T14:53:17;7.57;;;6.87;;
2039;SDS011;1025;42.686;23.350;2023-06-26T14:55:44;7.10;;;6.50;;
2039;SDS011;1025;42.686;23.350;2023-06-26T14:58:10;10.73;;;7.93;;